sensor_id;sensor_type;location;lat;lon;timestamp;temperature;humidity
6666;DHT22;3369;49.906;8.598;2023-02-15T00:01:54;1.70;99.90
6666;DHT22;3369;49.906;8.598;2023-02-15T00:04:23;1.60;99.90
6666;DHT22;3369;49.906;8.598;2023-02-15T00:06:49;1.60;99.90
6666;DHT22;3369;49.906;8.598;2023-02-15T00:09:15;1.60;99.90
6666;DHT22;3369;49.906;8.598;2023-02-15T00:11:41;1.60;99.90
6666;DHT22;3369;49.906;8.598;2023-02-15T00:14:17;1.70;99.90
6666;DHT22;3369;49.906;8.598;2023-02-15T00:16:44;1.70;99.90
6666;DHT22;3369;49.906;8.598;2023-02-15T00:19:11;1.70;99.90
6666;DHT22;3369;49.906;8.598;2023-02-15T00:21:38;1.70;99.90
6666;DHT22;3369;49.906;8.598;2023-02-15T00:24:06;1.70;99.90
6666;DHT22;3369;49.906;8.598;2023-02-15T00:26:32;1.70;99.90
6666;DHT22;3369;49.906;8.598;2023-02-15T00:28:59;1.70;99.90
6666;DHT22;3369;49.906;8.598;2023-02-15T00:31:25;1.70;99.90
6666;DHT22;3369;49.906;8.598;2023-02-15T00:33:51;1.70;99.90
6666;DHT22;3369;49.906;8.598;2023-02-15T00:36:16;1.70;99.90
6666;DHT22;3369;49.906;8.598;2023-02-15T00:38:42;1.70;99.90
6666;DHT22;3369;49.906;8.598;2023-02-15T00:41:09;1.80;99.90
6666;DHT22;3369;49.906;8.598;2023-02-15T00:43:35;1.70;99.90
6666;DHT22;3369;49.906;8.598;2023-02-15T00:46:02;1.70;99.90
6666;DHT22;3369;49.906;8.598;2023-02-15T00:48:28;1.70;99.90
6666;DHT22;3369;49.906;8.598;2023-02-15T00:50:56;1.70;99.90
6666;DHT22;3369;49.906;8.598;2023-02-15T00:53:23;1.70;99.90
6666;DHT22;3369;49.906;8.598;2023-02-15T00:55:49;1.70;99.90
6666;DHT22;3369;49.906;8.598;2023-02-15T00:58:15;1.70;99.90
6666;DHT22;3369;49.906;8.598;2023-02-15T01:00:43;1.80;99.90
6666;DHT22;3369;49.906;8.598;2023-02-15T01:03:09;1.70;99.90
6666;DHT22;3369;49.906;8.598;2023-02-15T01:05:35;1.80;99.90
6666;DHT22;3369;49.906;8.598;2023-02-15T01:08:01;1.80;99.90
6666;DHT22;3369;49.906;8.598;2023-02-15T01:10:27;1.70;99.90
6666;DHT22;3369;49.906;8.598;2023-02-15T01:12:53;1.80;99.90
6666;DHT22;3369;49.906;8.598;2023-02-15T01:15:20;1.80;99.90
6666;DHT22;3369;49.906;8.598;2023-02-15T01:17:45;1.80;99.90
6666;DHT22;3369;49.906;8.598;2023-02-15T01:20:17;1.80;99.90
6666;DHT22;3369;49.906;8.598;2023-02-15T01:22:43;1.80;99.90
6666;DHT22;3369;49.906;8.598;2023-02-15T01:25:09;1.80;99.90
6666;DHT22;3369;49.906;8.598;2023-02-15T01:27:34;1.80;99.90
6666;DHT22;3369;49.906;8.598;2023-02-15T01:30:00;1.80;99.90
6666;DHT22;3369;49.906;8.598;2023-02-15T01:32:26;1.80;99.90
6666;DHT22;3369;49.906;8.598;2023-02-15T01:34:52;1.70;99.90
6666;DHT22;3369;49.906;8.598;2023-02-15T01:37:18;1.70;99.90
6666;DHT22;3369;49.906;8.598;2023-02-15T01:39:43;1.70;99.90
6666;DHT22;3369;49.906;8.598;2023-02-15T01:42:12;1.70;99.90
6666;DHT22;3369;49.906;8.598;2023-02-15T01:47:40;1.70;99.90
6666;DHT22;3369;49.906;8.598;2023-02-15T01:50:17;1.70;99.90
6666;DHT22;3369;49.906;8.598;2023-02-15T01:55:15;1.70;99.90
6666;DHT22;3369;49.906;8.598;2023-02-15T01:57:42;1.70;99.90
6666;DHT22;3369;49.906;8.598;2023-02-15T02:00:09;1.60;99.90
6666;DHT22;3369;49.906;8.598;2023-02-15T02:02:35;1.70;99.90
6666;DHT22;3369;49.906;8.598;2023-02-15T02:05:03;1.70;99.90
6666;DHT22;3369;49.906;8.598;2023-02-15T02:07:43;1.70;99.90
6666;DHT22;3369;49.906;8.598;2023-02-15T02:10:20;1.80;99.90
6666;DHT22;3369;49.906;8.598;2023-02-15T02:12:47;1.70;99.90
6666;DHT22;3369;49.906;8.598;2023-02-15T02:15:13;1.80;99.90
6666;DHT22;3369;49.906;8.598;2023-02-15T02:40:16;1.70;99.90
6666;DHT22;3369;49.906;8.598;2023-02-15T02:43:04;1.70;99.90
6666;DHT22;3369;49.906;8.598;2023-02-15T02:45:56;1.70;99.90
6666;DHT22;3369;49.906;8.598;2023-02-15T02:48:25;1.80;99.90
6666;DHT22;3369;49.906;8.598;2023-02-15T02:50:52;1.70;99.90
6666;DHT22;3369;49.906;8.598;2023-02-15T02:53:17;1.70;99.90
6666;DHT22;3369;49.906;8.598;2023-02-15T02:55:51;1.80;99.90
6666;DHT22;3369;49.906;8.598;2023-02-15T02:58:20;1.80;99.90
6666;DHT22;3369;49.906;8.598;2023-02-15T03:01:03;1.80;99.90
6666;DHT22;3369;49.906;8.598;2023-02-15T03:03:41;1.80;99.90
6666;DHT22;3369;49.906;8.598;2023-02-15T03:06:20;1.80;99.90
6666;DHT22;3369;49.906;8.598;2023-02-15T03:08:51;1.80;99.90
6666;DHT22;3369;49.906;8.598;2023-02-15T03:11:20;1.70;99.90
6666;DHT22;3369;49.906;8.598;2023-02-15T03:13:47;1.70;99.90
6666;DHT22;3369;49.906;8.598;2023-02-15T03:16:15;1.60;99.90
6666;DHT22;3369;49.906;8.598;2023-02-15T03:18:55;1.60;99.90
6666;DHT22;3369;49.906;8.598;2023-02-15T03:21:47;1.60;99.90
6666;DHT22;3369;49.906;8.598;2023-02-15T03:24:25;1.60;99.90
6666;DHT22;3369;49.906;8.598;2023-02-15T03:26:52;1.50;99.90
6666;DHT22;3369;49.906;8.598;2023-02-15T03:29:20;1.50;99.90
6666;DHT22;3369;49.906;8.598;2023-02-15T03:31:52;1.40;99.90
6666;DHT22;3369;49.906;8.598;2023-02-15T03:34:18;1.40;99.90
6666;DHT22;3369;49.906;8.598;2023-02-15T03:44:54;1.30;99.90
6666;DHT22;3369;49.906;8.598;2023-02-15T03:47:29;1.30;99.90
6666;DHT22;3369;49.906;8.598;2023-02-15T03:50:15;1.20;99.90
6666;DHT22;3369;49.906;8.598;2023-02-15T03:53:04;1.20;99.90
6666;DHT22;3369;49.906;8.598;2023-02-15T03:55:31;1.20;99.90
6666;DHT22;3369;49.906;8.598;2023-02-15T03:57:58;1.20;99.90
6666;DHT22;3369;49.906;8.598;2023-02-15T04:00:49;1.20;99.90
6666;DHT22;3369;49.906;8.598;2023-02-15T04:03:43;1.10;99.90
6666;DHT22;3369;49.906;8.598;2023-02-15T04:06:10;1.10;99.90
6666;DHT22;3369;49.906;8.598;2023-02-15T04:08:36;1.10;99.90
6666;DHT22;3369;49.906;8.598;2023-02-15T04:11:20;1.10;99.90
6666;DHT22;3369;49.906;8.598;2023-02-15T04:13:46;1.10;99.90
6666;DHT22;3369;49.906;8.598;2023-02-15T04:16:11;1.10;99.90
6666;DHT22;3369;49.906;8.598;2023-02-15T04:18:42;1.10;99.90
6666;DHT22;3369;49.906;8.598;2023-02-15T04:21:28;1.00;99.90
6666;DHT22;3369;49.906;8.598;2023-02-15T04:24:13;1.00;99.90
6666;DHT22;3369;49.906;8.598;2023-02-15T04:26:58;0.90;99.90
6666;DHT22;3369;49.906;8.598;2023-02-15T04:29:25;0.90;99.90
6666;DHT22;3369;49.906;8.598;2023-02-15T04:31:52;0.90;99.90
6666;DHT22;3369;49.906;8.598;2023-02-15T04:34:18;0.90;99.90
6666;DHT22;3369;49.906;8.598;2023-02-15T04:36:44;0.90;99.90
6666;DHT22;3369;49.906;8.598;2023-02-15T04:39:12;0.90;99.90
6666;DHT22;3369;49.906;8.598;2023-02-15T04:41:38;0.90;99.90
6666;DHT22;3369;49.906;8.598;2023-02-15T04:44:04;0.80;99.90
6666;DHT22;3369;49.906;8.598;2023-02-15T04:46:30;0.80;99.90
6666;DHT22;3369;49.906;8.598;2023-02-15T04:48:56;0.80;99.90
6666;DHT22;3369;49.906;8.598;2023-02-15T04:51:22;0.70;99.90
6666;DHT22;3369;49.906;8.598;2023-02-15T04:53:48;0.70;99.90
6666;DHT22;3369;49.906;8.598;2023-02-15T04:56:14;0.70;99.90
6666;DHT22;3369;49.906;8.598;2023-02-15T04:58:40;0.70;99.90
6666;DHT22;3369;49.906;8.598;2023-02-15T05:01:07;0.60;99.90
6666;DHT22;3369;49.906;8.598;2023-02-15T05:03:33;0.50;99.90
6666;DHT22;3369;49.906;8.598;2023-02-15T05:05:59;0.60;99.90
6666;DHT22;3369;49.906;8.598;2023-02-15T05:08:24;0.50;99.90
6666;DHT22;3369;49.906;8.598;2023-02-15T05:10:50;0.50;99.90
6666;DHT22;3369;49.906;8.598;2023-02-15T05:13:16;0.50;99.90
6666;DHT22;3369;49.906;8.598;2023-02-15T05:15:50;0.50;99.90
6666;DHT22;3369;49.906;8.598;2023-02-15T05:18:17;0.40;99.90
6666;DHT22;3369;49.906;8.598;2023-02-15T05:20:43;0.30;99.90
6666;DHT22;3369;49.906;8.598;2023-02-15T05:23:09;0.30;99.90
6666;DHT22;3369;49.906;8.598;2023-02-15T05:25:34;0.30;99.90
6666;DHT22;3369;49.906;8.598;2023-02-15T05:28:19;0.30;99.90
6666;DHT22;3369;49.906;8.598;2023-02-15T05:30:58;0.20;99.90
6666;DHT22;3369;49.906;8.598;2023-02-15T05:33:26;0.30;99.90
6666;DHT22;3369;49.906;8.598;2023-02-15T05:35:51;0.30;99.90
6666;DHT22;3369;49.906;8.598;2023-02-15T05:38:17;0.30;99.90
6666;DHT22;3369;49.906;8.598;2023-02-15T05:40:42;0.30;99.90
6666;DHT22;3369;49.906;8.598;2023-02-15T05:43:08;0.20;99.90
6666;DHT22;3369;49.906;8.598;2023-02-15T05:45:34;0.30;99.90
6666;DHT22;3369;49.906;8.598;2023-02-15T05:48:00;0.30;99.90
6666;DHT22;3369;49.906;8.598;2023-02-15T05:50:26;0.30;99.90
6666;DHT22;3369;49.906;8.598;2023-02-15T05:52:52;0.30;99.90
6666;DHT22;3369;49.906;8.598;2023-02-15T05:55:18;0.20;99.90
6666;DHT22;3369;49.906;8.598;2023-02-15T05:57:43;0.30;99.90
6666;DHT22;3369;49.906;8.598;2023-02-15T06:00:09;0.30;99.90
6666;DHT22;3369;49.906;8.598;2023-02-15T06:02:37;0.20;99.90
6666;DHT22;3369;49.906;8.598;2023-02-15T06:05:04;0.20;99.90
6666;DHT22;3369;49.906;8.598;2023-02-15T06:07:30;0.20;99.90
6666;DHT22;3369;49.906;8.598;2023-02-15T06:09:55;0.10;99.90
6666;DHT22;3369;49.906;8.598;2023-02-15T06:12:21;0.10;99.90
6666;DHT22;3369;49.906;8.598;2023-02-15T06:14:46;0.10;99.90
6666;DHT22;3369;49.906;8.598;2023-02-15T06:17:12;0.20;99.90
6666;DHT22;3369;49.906;8.598;2023-02-15T06:19:38;0.20;99.90
6666;DHT22;3369;49.906;8.598;2023-02-15T06:22:03;0.20;99.90
6666;DHT22;3369;49.906;8.598;2023-02-15T06:24:29;0.20;99.90
6666;DHT22;3369;49.906;8.598;2023-02-15T06:26:54;0.20;99.90
6666;DHT22;3369;49.906;8.598;2023-02-15T06:29:20;0.30;99.90
6666;DHT22;3369;49.906;8.598;2023-02-15T06:31:46;0.20;99.90
6666;DHT22;3369;49.906;8.598;2023-02-15T06:34:11;0.30;99.90
6666;DHT22;3369;49.906;8.598;2023-02-15T06:36:37;0.40;99.90
6666;DHT22;3369;49.906;8.598;2023-02-15T06:39:03;0.40;99.90
6666;DHT22;3369;49.906;8.598;2023-02-15T06:41:29;0.40;99.90
6666;DHT22;3369;49.906;8.598;2023-02-15T06:43:55;0.40;99.90
6666;DHT22;3369;49.906;8.598;2023-02-15T06:46:20;0.50;99.90
6666;DHT22;3369;49.906;8.598;2023-02-15T06:48:46;0.50;99.90
6666;DHT22;3369;49.906;8.598;2023-02-15T06:51:11;0.50;99.90
6666;DHT22;3369;49.906;8.598;2023-02-15T06:53:37;0.50;99.90
6666;DHT22;3369;49.906;8.598;2023-02-15T06:56:04;0.50;99.90
6666;DHT22;3369;49.906;8.598;2023-02-15T06:58:32;0.50;99.90
6666;DHT22;3369;49.906;8.598;2023-02-15T07:00:58;0.50;99.90
6666;DHT22;3369;49.906;8.598;2023-02-15T07:03:24;0.60;99.90
6666;DHT22;3369;49.906;8.598;2023-02-15T07:05:54;0.60;99.90
6666;DHT22;3369;49.906;8.598;2023-02-15T07:08:20;0.60;99.90
6666;DHT22;3369;49.906;8.598;2023-02-15T07:10:46;0.60;99.90
6666;DHT22;3369;49.906;8.598;2023-02-15T07:13:12;0.60;99.90
6666;DHT22;3369;49.906;8.598;2023-02-15T07:15:37;0.60;99.90
6666;DHT22;3369;49.906;8.598;2023-02-15T07:18:03;0.60;99.90
6666;DHT22;3369;49.906;8.598;2023-02-15T07:20:30;0.60;99.90
6666;DHT22;3369;49.906;8.598;2023-02-15T07:22:56;0.60;99.90
6666;DHT22;3369;49.906;8.598;2023-02-15T07:25:21;0.70;99.90
6666;DHT22;3369;49.906;8.598;2023-02-15T07:27:47;0.60;99.90
6666;DHT22;3369;49.906;8.598;2023-02-15T07:30:15;0.60;99.90
6666;DHT22;3369;49.906;8.598;2023-02-15T07:32:41;0.60;99.90
6666;DHT22;3369;49.906;8.598;2023-02-15T07:35:26;0.70;99.90
6666;DHT22;3369;49.906;8.598;2023-02-15T07:37:51;0.70;99.90
6666;DHT22;3369;49.906;8.598;2023-02-15T07:40:18;0.70;99.90
6666;DHT22;3369;49.906;8.598;2023-02-15T07:42:44;0.70;99.90
6666;DHT22;3369;49.906;8.598;2023-02-15T07:45:10;0.70;99.90
6666;DHT22;3369;49.906;8.598;2023-02-15T07:47:35;0.70;99.90
6666;DHT22;3369;49.906;8.598;2023-02-15T07:50:01;0.70;99.90
6666;DHT22;3369;49.906;8.598;2023-02-15T07:52:27;0.70;99.90
6666;DHT22;3369;49.906;8.598;2023-02-15T07:54:53;0.70;99.90
6666;DHT22;3369;49.906;8.598;2023-02-15T07:57:18;0.70;99.90
6666;DHT22;3369;49.906;8.598;2023-02-15T07:59:44;0.70;99.90
6666;DHT22;3369;49.906;8.598;2023-02-15T08:02:10;0.70;99.90
6666;DHT22;3369;49.906;8.598;2023-02-15T08:04:36;0.70;99.90
6666;DHT22;3369;49.906;8.598;2023-02-15T08:07:02;0.70;99.90
6666;DHT22;3369;49.906;8.598;2023-02-15T08:09:28;0.80;99.90
6666;DHT22;3369;49.906;8.598;2023-02-15T08:11:53;0.80;99.90
6666;DHT22;3369;49.906;8.598;2023-02-15T08:14:21;0.80;99.90
6666;DHT22;3369;49.906;8.598;2023-02-15T08:16:52;0.80;99.90
6666;DHT22;3369;49.906;8.598;2023-02-15T08:19:27;0.80;99.90
6666;DHT22;3369;49.906;8.598;2023-02-15T08:21:59;0.80;99.90
6666;DHT22;3369;49.906;8.598;2023-02-15T08:24:27;0.90;99.90
6666;DHT22;3369;49.906;8.598;2023-02-15T08:26:53;0.90;99.90
6666;DHT22;3369;49.906;8.598;2023-02-15T08:29:22;0.90;99.90
6666;DHT22;3369;49.906;8.598;2023-02-15T08:31:48;1.00;99.90
6666;DHT22;3369;49.906;8.598;2023-02-15T08:34:19;1.00;99.90
6666;DHT22;3369;49.906;8.598;2023-02-15T08:36:45;1.00;99.90
6666;DHT22;3369;49.906;8.598;2023-02-15T08:39:12;1.00;99.90
6666;DHT22;3369;49.906;8.598;2023-02-15T08:41:38;1.00;99.90
6666;DHT22;3369;49.906;8.598;2023-02-15T08:44:06;1.10;99.90
6666;DHT22;3369;49.906;8.598;2023-02-15T08:46:35;1.10;99.90
6666;DHT22;3369;49.906;8.598;2023-02-15T08:49:02;1.00;99.90
6666;DHT22;3369;49.906;8.598;2023-02-15T08:51:30;1.00;99.90
